createdAt,value
2023-04-27T00:00:39.164Z,101450.84
2023-04-27T00:03:06.299Z,101450.47
2023-04-27T00:05:39.189Z,101450.00
2023-04-27T00:08:07.003Z,101447.50
2023-04-27T00:10:33.491Z,101451.34
2023-04-27T00:13:00.377Z,101450.94
2023-04-27T00:15:27.067Z,101448.47
2023-04-27T00:17:53.576Z,101451.59
2023-04-27T00:20:20.742Z,101450.56
2023-04-27T00:22:47.249Z,101454.31
2023-04-27T00:25:13.637Z,101448.13
2023-04-27T00:27:40.025Z,101454.41
2023-04-27T00:30:06.892Z,101449.41
2023-04-27T00:32:33.358Z,101451.91
2023-04-27T00:34:59.691Z,101457.34
2023-04-27T00:37:26.488Z,101456.13
2023-04-27T00:39:53.033Z,101460.03
2023-04-27T00:42:19.701Z,101462.34
2023-04-27T00:44:47.090Z,101459.47
2023-04-27T00:47:14.089Z,101457.75
2023-04-27T00:49:40.996Z,101454.03
2023-04-27T00:52:07.747Z,101458.22
2023-04-27T00:54:34.368Z,101455.09
2023-04-27T00:57:00.793Z,101465.75
2023-04-27T00:59:27.238Z,101458.69
2023-04-27T01:01:55.029Z,101463.69
2023-04-27T01:04:21.890Z,101458.34
2023-04-27T01:06:48.418Z,101454.16
2023-04-27T01:09:16.439Z,101462.44
2023-04-27T01:11:42.829Z,101462.47
2023-04-27T01:14:09.456Z,101456.66
2023-04-27T01:16:35.924Z,101461.31
2023-04-27T01:19:02.461Z,101459.19
2023-04-27T01:21:28.993Z,101470.03
2023-04-27T01:23:55.427Z,101463.19
2023-04-27T01:26:22.454Z,101459.25
2023-04-27T01:28:49.071Z,101468.84
2023-04-27T01:31:15.575Z,101463.19
2023-04-27T01:33:42.365Z,101455.06
2023-04-27T01:36:09.335Z,101465.91
2023-04-27T01:38:35.966Z,101458.59
2023-04-27T01:41:04.735Z,101458.81
2023-04-27T01:43:32.241Z,101458.25
2023-04-27T01:46:12.431Z,101458.94
2023-04-27T01:48:39.980Z,101460.84
2023-04-27T01:51:06.980Z,101462.31
2023-04-27T01:53:33.667Z,101465.66
2023-04-27T01:56:00.828Z,101470.03
2023-04-27T01:58:27.792Z,101471.94
2023-04-27T02:00:54.285Z,101463.19
2023-04-27T02:03:20.898Z,101467.75
2023-04-27T02:05:47.958Z,101478.13
2023-04-27T02:08:14.631Z,101477.72
2023-04-27T02:10:41.199Z,101482.50
2023-04-27T02:13:07.680Z,101478.13
2023-04-27T02:15:35.295Z,101479.75
2023-04-27T02:18:03.336Z,101473.56
2023-04-27T02:20:33.239Z,101467.13
2023-04-27T02:22:59.946Z,101468.38
2023-04-27T02:25:26.800Z,101477.34
2023-04-27T02:27:53.836Z,101472.16
2023-04-27T02:30:21.281Z,101472.78
2023-04-27T02:32:48.222Z,101477.97
2023-04-27T02:35:14.788Z,101476.34
2023-04-27T02:37:41.611Z,101485.06
2023-04-27T02:40:09.225Z,101478.63
2023-04-27T02:42:35.746Z,101481.09
2023-04-27T02:45:02.215Z,101480.06
2023-04-27T02:47:28.635Z,101479.00
2023-04-27T02:49:55.182Z,101469.03
2023-04-27T02:52:21.528Z,101466.31
2023-04-27T02:54:47.876Z,101466.31
2023-04-27T02:57:14.365Z,101460.69
2023-04-27T02:59:40.796Z,101457.78
2023-04-27T03:02:07.696Z,101463.63
2023-04-27T03:04:34.086Z,101457.19
2023-04-27T03:07:00.479Z,101456.97
2023-04-27T03:09:27.018Z,101452.63
2023-04-27T03:11:53.400Z,101461.53
2023-04-27T03:14:19.750Z,101457.41
2023-04-27T03:16:46.343Z,101446.16
2023-04-27T03:19:12.972Z,101454.69
2023-04-27T03:21:39.431Z,101453.03
2023-04-27T03:24:06.124Z,101454.88
2023-04-27T03:26:32.490Z,101461.13
2023-04-27T03:28:58.963Z,101465.28
2023-04-27T03:31:25.494Z,101462.78
2023-04-27T03:33:51.874Z,101462.34
2023-04-27T03:36:18.250Z,101457.38
2023-04-27T03:38:44.737Z,101468.59
2023-04-27T03:41:11.592Z,101461.72
2023-04-27T03:43:37.947Z,101459.66
2023-04-27T03:46:04.550Z,101459.59
2023-04-27T03:48:30.995Z,101454.88
2023-04-27T03:50:57.381Z,101460.28
2023-04-27T03:53:23.827Z,101460.66
2023-04-27T03:55:50.190Z,101457.34
2023-04-27T03:58:17.459Z,101459.41
2023-04-27T04:00:44.071Z,101468.56
2023-04-27T04:03:10.598Z,101464.22
2023-04-27T04:05:37.204Z,101469.63
2023-04-27T04:08:03.925Z,101476.47
2023-04-27T04:10:30.279Z,101470.25
2023-04-27T04:12:56.632Z,101472.75
2023-04-27T04:15:23.158Z,101477.09
2023-04-27T04:17:49.577Z,101484.75
2023-04-27T04:20:16.183Z,101491.63
2023-04-27T04:22:43.705Z,101494.94
2023-04-27T04:25:11.699Z,101494.31
2023-04-27T04:27:38.094Z,101488.47
2023-04-27T04:30:06.417Z,101495.94
2023-04-27T04:32:33.787Z,101498.84
2023-04-27T04:35:01.493Z,101498.66
2023-04-27T04:37:28.224Z,101501.72
2023-04-27T04:39:54.680Z,101494.69
2023-04-27T04:42:21.089Z,101490.94
2023-04-27T04:44:47.430Z,101498.03
2023-04-27T04:47:13.814Z,101501.72
2023-04-27T04:49:40.193Z,101503.78
2023-04-27T04:52:06.572Z,101505.22
2023-04-27T04:54:33.035Z,101508.31
2023-04-27T04:57:00.874Z,101501.47
2023-04-27T04:59:27.214Z,101504.00
2023-04-27T05:01:56.727Z,101504.63
2023-04-27T05:04:23.311Z,101502.53
2023-04-27T05:06:49.768Z,101506.75
2023-04-27T05:09:16.184Z,101508.38
2023-04-27T05:11:42.537Z,101515.03
2023-04-27T05:14:08.945Z,101517.53
2023-04-27T05:16:35.499Z,101518.75
2023-04-27T05:19:01.960Z,101525.41
2023-04-27T05:21:28.423Z,101515.03
2023-04-27T05:23:54.952Z,101526.28
2023-04-27T05:26:21.615Z,101527.16
2023-04-27T05:28:49.304Z,101518.06
2023-04-27T05:31:16.058Z,101525.34
2023-04-27T05:33:42.538Z,101524.69
2023-04-27T05:36:09.387Z,101512.66
2023-04-27T05:38:39.926Z,101525.97
2023-04-27T05:41:06.499Z,101528.88
2023-04-27T05:43:34.882Z,101529.72
2023-04-27T05:46:01.842Z,101534.28
2023-04-27T05:48:28.251Z,101538.22
2023-04-27T05:51:01.949Z,101543.47
2023-04-27T05:53:29.064Z,101544.72
2023-04-27T05:55:56.703Z,101549.72
2023-04-27T05:58:23.210Z,101540.97
2023-04-27T06:00:50.421Z,101544.09
2023-04-27T06:03:16.999Z,101545.34
2023-04-27T06:05:43.597Z,101553.06
2023-04-27T06:08:12.071Z,101548.06
2023-04-27T06:10:41.545Z,101552.63
2023-04-27T06:13:07.954Z,101546.78
2023-04-27T06:15:34.463Z,101551.78
2023-04-27T06:18:01.013Z,101565.91
2023-04-27T06:20:27.461Z,101560.50
2023-04-27T06:22:53.864Z,101560.28
2023-04-27T06:25:20.356Z,101561.28
2023-04-27T06:27:47.361Z,101561.75
2023-04-27T06:30:13.945Z,101562.97
2023-04-27T06:32:40.659Z,101560.81
2023-04-27T06:35:07.290Z,101566.66
2023-04-27T06:37:33.735Z,101561.41
2023-04-27T06:40:00.124Z,101559.91
2023-04-27T06:42:27.273Z,101558.13
2023-04-27T06:44:55.894Z,101559.16
2023-04-27T06:47:22.802Z,101550.81
2023-04-27T06:49:49.735Z,101549.66
2023-04-27T06:52:16.448Z,101552.78
2023-04-27T06:54:42.960Z,101559.03
2023-04-27T06:57:09.403Z,101554.66
2023-04-27T06:59:36.101Z,101556.78
2023-04-27T07:02:02.535Z,101559.63
2023-04-27T07:04:30.166Z,101552.97
2023-04-27T07:06:56.814Z,101546.41
2023-04-27T07:09:27.551Z,101547.13
2023-04-27T07:11:55.162Z,101545.56
2023-04-27T07:14:22.303Z,101549.78
2023-04-27T07:16:48.699Z,101544.53
2023-04-27T07:19:15.243Z,101545.78
2023-04-27T07:21:41.953Z,101548.88
2023-04-27T07:24:08.518Z,101549.88
2023-04-27T07:26:34.956Z,101546.75
2023-04-27T07:29:04.225Z,101555.44
2023-04-27T07:31:34.884Z,101545.19
2023-04-27T07:34:01.263Z,101546.53
2023-04-27T07:36:27.675Z,101542.28
2023-04-27T07:38:54.040Z,101542.28
2023-04-27T07:41:21.815Z,101540.97
2023-04-27T07:43:48.261Z,101547.84
2023-04-27T07:46:14.703Z,101546.66
2023-04-27T07:48:41.219Z,101534.69
2023-04-27T07:51:07.614Z,101540.97
2023-04-27T07:53:35.489Z,101536.47
2023-04-27T07:56:01.984Z,101537.16
2023-04-27T07:58:28.316Z,101531.31
2023-04-27T08:00:54.610Z,101538.88
2023-04-27T08:03:22.854Z,101541.63
2023-04-27T08:05:49.844Z,101536.19
2023-04-27T08:08:17.010Z,101539.94
2023-04-27T08:10:43.405Z,101533.56
2023-04-27T08:13:10.012Z,101531.41
2023-04-27T08:15:37.245Z,101534.31
2023-04-27T08:18:03.905Z,101531.66
2023-04-27T08:20:30.384Z,101528.03
2023-04-27T08:22:56.785Z,101518.28
2023-04-27T08:25:23.398Z,101528.88
2023-04-27T08:27:49.759Z,101514.78
2023-04-27T08:30:16.646Z,101516.91
2023-04-27T08:32:43.195Z,101525.09
2023-04-27T08:35:09.678Z,101510.75
2023-04-27T08:37:36.066Z,101513.13
2023-04-27T08:40:06.115Z,101520.78
2023-04-27T08:42:32.808Z,101522.06
2023-04-27T08:44:59.348Z,101511.84
2023-04-27T08:47:38.706Z,101511.81
2023-04-27T08:50:08.239Z,101506.28
2023-04-27T08:52:34.857Z,101506.22
2023-04-27T08:55:01.211Z,101506.72
2023-04-27T08:57:27.522Z,101511.13
2023-04-27T09:00:01.244Z,101505.84
2023-04-27T09:02:29.591Z,101503.47
2023-04-27T09:04:56.937Z,101503.19
2023-04-27T09:07:23.585Z,101508.16
2023-04-27T09:09:50.347Z,101499.00
2023-04-27T09:12:21.817Z,101499.31
2023-04-27T09:14:58.033Z,101496.09
2023-04-27T09:17:27.715Z,101492.75
2023-04-27T09:20:10.804Z,101489.47
2023-04-27T09:22:47.610Z,101492.88
2023-04-27T09:25:27.191Z,101481.84
2023-04-27T09:27:54.186Z,101485.91
2023-04-27T09:30:20.945Z,101479.09
2023-04-27T09:32:59.390Z,101481.28
2023-04-27T09:35:29.291Z,101488.91
2023-04-27T09:37:56.128Z,101485.91
2023-04-27T09:40:26.627Z,101484.22
2023-04-27T09:42:54.864Z,101493.19
2023-04-27T09:45:21.428Z,101479.91
2023-04-27T09:47:48.221Z,101482.09
2023-04-27T09:50:15.449Z,101477.41
2023-04-27T09:52:42.657Z,101476.50
2023-04-27T09:55:13.734Z,101466.56
2023-04-27T09:58:09.452Z,101473.25
2023-04-27T10:00:51.688Z,101465.91
2023-04-27T10:03:33.424Z,101470.44
2023-04-27T10:06:21.547Z,101450.63
2023-04-27T10:08:51.784Z,101460.31
2023-04-27T10:11:19.253Z,101454.06
2023-04-27T10:13:54.845Z,101456.06
2023-04-27T10:16:21.812Z,101448.81
2023-04-27T10:18:55.736Z,101445.34
2023-04-27T10:21:23.720Z,101455.22
2023-04-27T10:23:51.829Z,101446.47
2023-04-27T10:26:25.535Z,101442.03
2023-04-27T10:29:07.928Z,101441.50
2023-04-27T10:31:35.198Z,101438.28
2023-04-27T10:34:15.855Z,101435.28
2023-04-27T10:36:42.566Z,101436.16
2023-04-27T10:39:25.575Z,101426.75
2023-04-27T10:41:59.337Z,101425.00
2023-04-27T10:44:29.098Z,101428.28
2023-04-27T10:46:57.300Z,101425.81
2023-04-27T10:49:23.793Z,101423.97
2023-04-27T10:51:51.320Z,101416.66
2023-04-27T10:54:18.644Z,101423.88
2023-04-27T10:56:45.389Z,101408.13
2023-04-27T10:59:12.117Z,101411.19
2023-04-27T11:01:40.218Z,101411.97
2023-04-27T11:04:06.756Z,101408.28
2023-04-27T11:06:42.908Z,101413.41
2023-04-27T11:09:10.868Z,101407.03
2023-04-27T11:11:37.363Z,101414.53
2023-04-27T11:14:03.858Z,101404.72
2023-04-27T11:16:32.933Z,101399.19
2023-04-27T11:19:05.081Z,101403.13
2023-04-27T11:21:32.346Z,101404.88
2023-04-27T11:24:07.530Z,101395.34
2023-04-27T11:26:34.020Z,101388.09
2023-04-27T11:29:05.130Z,101389.72
2023-04-27T11:31:49.374Z,101375.72
2023-04-27T11:34:22.782Z,101385.31
2023-04-27T11:37:17.976Z,101385.84
2023-04-27T11:39:46.236Z,101378.84
2023-04-27T11:42:23.407Z,101379.97
2023-04-27T11:44:54.405Z,101374.00
2023-04-27T11:47:22.720Z,101380.34
2023-04-27T11:49:50.519Z,101381.38
2023-04-27T11:52:17.595Z,101379.00
2023-04-27T11:54:52.943Z,101368.69
2023-04-27T11:57:29.282Z,101367.03
2023-04-27T11:59:57.662Z,101362.09
2023-04-27T12:02:24.115Z,101356.34
2023-04-27T12:04:51.614Z,101366.50
2023-04-27T12:07:19.262Z,101362.41
2023-04-27T12:09:46.006Z,101353.97
2023-04-27T12:12:13.949Z,101353.41
2023-04-27T12:14:41.330Z,101355.53
2023-04-27T12:17:07.794Z,101355.09
2023-04-27T12:19:34.341Z,101351.72
2023-04-27T12:22:00.728Z,101352.56
2023-04-27T12:24:27.046Z,101353.72
2023-04-27T12:26:53.455Z,101351.94
2023-04-27T12:29:20.539Z,101343.50
2023-04-27T12:31:46.970Z,101336.91
2023-04-27T12:34:13.693Z,101327.31
2023-04-27T12:36:40.391Z,101326.41
2023-04-27T12:39:20.655Z,101332.88
2023-04-27T12:41:48.317Z,101336.22
2023-04-27T12:44:15.967Z,101338.16
2023-04-27T12:46:43.892Z,101325.50
2023-04-27T12:49:11.107Z,101329.91
2023-04-27T12:51:37.640Z,101326.94
2023-04-27T12:54:05.137Z,101335.94
2023-04-27T12:56:31.563Z,101321.16
2023-04-27T12:58:58.256Z,101334.34
2023-04-27T13:01:27.563Z,101319.28
2023-04-27T13:03:56.029Z,101317.97
2023-04-27T13:06:22.823Z,101320.41
2023-04-27T13:08:49.905Z,101317.94
2023-04-27T13:11:17.170Z,101319.31
2023-04-27T13:13:48.021Z,101319.84
2023-04-27T13:16:14.521Z,101316.81
2023-04-27T13:18:41.285Z,101317.59
2023-04-27T13:21:07.970Z,101312.09
2023-04-27T13:23:34.579Z,101314.53
2023-04-27T13:26:01.372Z,101306.34
2023-04-27T13:28:27.775Z,101309.03
2023-04-27T13:30:54.249Z,101311.19
2023-04-27T13:33:23.304Z,101303.50
2023-04-27T13:35:52.016Z,101307.88
2023-04-27T13:38:18.551Z,101299.91
2023-04-27T13:40:44.968Z,101303.94
2023-04-27T13:43:11.362Z,101302.88
2023-04-27T13:45:39.517Z,101302.03
2023-04-27T13:48:06.464Z,101286.81
2023-04-27T13:50:33.128Z,101291.66
2023-04-27T13:53:01.730Z,101300.50
2023-04-27T13:55:28.195Z,101296.59
2023-04-27T13:57:54.643Z,101298.19
2023-04-27T14:00:21.484Z,101291.19
2023-04-27T14:02:47.974Z,101295.44
2023-04-27T14:05:14.662Z,101287.63
2023-04-27T14:07:41.042Z,101284.09
2023-04-27T14:10:08.033Z,101276.19
2023-04-27T14:12:35.314Z,101271.88
2023-04-27T14:15:01.754Z,101279.94
2023-04-27T14:17:28.123Z,101263.44
2023-04-27T14:19:54.505Z,101279.72
2023-04-27T14:22:20.942Z,101270.00
2023-04-27T14:24:47.226Z,101266.66
2023-04-27T14:27:15.169Z,101261.91
2023-04-27T14:29:41.513Z,101265.81
2023-04-27T14:32:08.414Z,101265.84
2023-04-27T14:34:35.081Z,101263.09
2023-04-27T14:37:01.472Z,101265.91
2023-04-27T14:39:28.154Z,101267.59
2023-04-27T14:41:54.552Z,101255.34
2023-04-27T14:44:21.012Z,101252.94
2023-04-27T14:46:47.511Z,101251.22
2023-04-27T14:49:14.107Z,101239.06
2023-04-27T14:51:43.428Z,101236.88
2023-04-27T14:54:10.070Z,101231.97
2023-04-27T14:56:36.707Z,101232.59
2023-04-27T14:59:03.306Z,101229.34
2023-04-27T15:01:29.813Z,101227.72
2023-04-27T15:03:58.078Z,101227.41
2023-04-27T15:06:28.239Z,101217.78
2023-04-27T15:08:55.298Z,101220.56
2023-04-27T15:11:22.065Z,101211.91
2023-04-27T15:13:48.645Z,101218.47
2023-04-27T15:16:15.212Z,101209.31
2023-04-27T15:18:42.133Z,101216.22
2023-04-27T15:21:08.950Z,101212.84
2023-04-27T15:23:37.267Z,101210.97
2023-04-27T15:26:04.173Z,101202.16
2023-04-27T15:28:30.599Z,101208.38
2023-04-27T15:30:57.081Z,101203.44
2023-04-27T15:33:23.579Z,101200.75
2023-04-27T15:35:50.185Z,101197.06
2023-04-27T15:38:17.872Z,101194.31
2023-04-27T15:40:44.230Z,101184.94
2023-04-27T15:43:10.680Z,101198.41
2023-04-27T15:45:37.168Z,101187.22
2023-04-27T15:48:03.825Z,101187.31
2023-04-27T15:50:30.429Z,101185.16
2023-04-27T15:52:56.884Z,101182.69
2023-04-27T15:55:23.408Z,101181.81
2023-04-27T15:57:50.480Z,101174.13
2023-04-27T16:00:18.903Z,101176.59
2023-04-27T16:02:46.797Z,101172.78
2023-04-27T16:05:13.698Z,101173.59
2023-04-27T16:07:42.644Z,101168.63
2023-04-27T16:10:09.872Z,101166.47
2023-04-27T16:12:36.599Z,101163.50
2023-04-27T16:15:03.717Z,101164.88
2023-04-27T16:17:37.462Z,101159.91
2023-04-27T16:20:08.456Z,101159.88
2023-04-27T16:22:36.144Z,101166.44
2023-04-27T16:25:03.944Z,101162.63
2023-04-27T16:27:30.845Z,101147.81
2023-04-27T16:29:57.300Z,101148.09
2023-04-27T16:32:23.846Z,101147.81
2023-04-27T16:34:50.512Z,101147.88
2023-04-27T16:37:16.954Z,101141.88
2023-04-27T16:39:43.338Z,101144.09
2023-04-27T16:42:10.137Z,101140.28
2023-04-27T16:44:38.336Z,101137.81
2023-04-27T16:47:04.636Z,101141.41
2023-04-27T16:49:31.035Z,101140.28
2023-04-27T16:51:57.405Z,101134.50
2023-04-27T16:54:23.745Z,101133.69
2023-04-27T16:56:50.273Z,101128.22
2023-04-27T16:59:17.068Z,101130.44
2023-04-27T17:01:43.674Z,101120.59
2023-04-27T17:04:10.749Z,101116.75
2023-04-27T17:06:37.170Z,101111.81
2023-04-27T17:09:03.641Z,101109.63
2023-04-27T17:11:30.048Z,101112.38
2023-04-27T17:13:56.636Z,101103.63
2023-04-27T17:16:23.508Z,101112.38
2023-04-27T17:18:50.009Z,101106.91
2023-04-27T17:21:17.291Z,101102.53
2023-04-27T17:23:46.519Z,101099.78
2023-04-27T17:28:42.036Z,101098.13
2023-04-27T17:31:08.562Z,101094.56
2023-04-27T17:33:35.250Z,101091.84
2023-04-27T17:36:01.613Z,101084.16
2023-04-27T17:38:28.099Z,101077.88
2023-04-27T17:40:54.493Z,101074.31
2023-04-27T17:43:20.885Z,101078.41
2023-04-27T17:45:48.219Z,101078.16
2023-04-27T17:48:14.736Z,101086.09
2023-04-27T17:50:41.270Z,101082.25
2023-04-27T17:53:07.669Z,101083.06
2023-04-27T17:55:34.102Z,101077.59
2023-04-27T17:58:00.581Z,101081.13
2023-04-27T18:00:27.091Z,101083.91
2023-04-27T18:02:53.688Z,101085.53
2023-04-27T18:05:20.244Z,101072.13
2023-04-27T18:07:46.635Z,101068.56
2023-04-27T18:10:13.524Z,101061.97
2023-04-27T18:12:39.822Z,101057.59
2023-04-27T18:15:09.469Z,101060.63
2023-04-27T18:17:36.573Z,101055.97
2023-04-27T18:20:09.370Z,101056.25
2023-04-27T18:22:37.802Z,101065.81
2023-04-27T18:25:04.616Z,101066.63
2023-04-27T18:27:31.826Z,101068.00
2023-04-27T18:29:58.425Z,101055.69
2023-04-27T18:32:24.871Z,101069.09
2023-04-27T18:34:51.215Z,101063.63
2023-04-27T18:37:17.739Z,101060.31
2023-04-27T18:39:44.160Z,101058.69
2023-04-27T18:42:10.475Z,101065.28
2023-04-27T18:44:37.105Z,101064.13
2023-04-27T18:47:03.503Z,101065.22
2023-04-27T18:49:29.880Z,101065.22
2023-04-27T18:51:56.371Z,101062.22
2023-04-27T18:54:22.678Z,101060.78
2023-04-27T18:56:52.864Z,101051.19
2023-04-27T18:59:20.137Z,101061.25
2023-04-27T19:01:46.827Z,101052.78
2023-04-27T19:04:14.453Z,101046.75
2023-04-27T19:06:41.025Z,101042.59
2023-04-27T19:09:09.070Z,101049.94
2023-04-27T19:11:35.941Z,101050.50
2023-04-27T19:14:02.483Z,101052.38
2023-04-27T19:16:29.011Z,101054.00
2023-04-27T19:18:55.473Z,101051.31
2023-04-27T19:21:21.938Z,101053.78
2023-04-27T19:23:48.355Z,101059.47
2023-04-27T19:26:14.929Z,101062.78
2023-04-27T19:28:41.417Z,101064.13
2023-04-27T19:31:07.890Z,101071.69
2023-04-27T19:33:34.454Z,101069.22
2023-04-27T19:36:00.839Z,101071.41
2023-04-27T19:38:27.341Z,101072.47
2023-04-27T19:40:53.688Z,101075.69
2023-04-27T19:43:20.208Z,101070.22
2023-04-27T19:45:48.711Z,101075.38
2023-04-27T19:48:15.215Z,101077.19
2023-04-27T19:50:41.756Z,101070.69
2023-04-27T19:53:08.206Z,101078.38
2023-04-27T19:55:34.879Z,101078.63
2023-04-27T19:58:01.463Z,101083.16
2023-04-27T20:00:27.920Z,101084.78
2023-04-27T20:02:54.473Z,101084.13
2023-04-27T20:05:21.412Z,101077.94
2023-04-27T20:07:50.002Z,101074.41
2023-04-27T20:10:16.706Z,101077.69
2023-04-27T20:12:55.478Z,101076.59
2023-04-27T20:15:23.702Z,101064.22
2023-04-27T20:17:50.171Z,101058.56
2023-04-27T20:20:16.676Z,101052.75
2023-04-27T20:22:43.112Z,101052.50
2023-04-27T20:25:09.944Z,101051.34
2023-04-27T20:27:36.563Z,101046.97
2023-04-27T20:30:04.176Z,101042.69
2023-04-27T20:32:30.592Z,101038.28
2023-04-27T20:34:56.958Z,101039.59
2023-04-27T20:37:24.761Z,101029.97
2023-04-27T20:39:54.363Z,101038.47
2023-04-27T20:42:20.832Z,101047.22
2023-04-27T20:44:48.331Z,101041.28
2023-04-27T20:47:15.297Z,101044.28
2023-04-27T20:49:41.898Z,101040.16
2023-04-27T20:52:08.260Z,101036.88
2023-04-27T20:54:34.673Z,101022.72
2023-04-27T20:57:02.083Z,101028.50
2023-04-27T20:59:28.665Z,101024.16
2023-04-27T21:01:55.117Z,101023.03
2023-04-27T21:04:21.602Z,101014.63
2023-04-27T21:06:48.104Z,101019.81
2023-04-27T21:09:14.514Z,101031.03
2023-04-27T21:11:40.880Z,101023.09
2023-04-27T21:14:07.324Z,101017.13
2023-04-27T21:16:33.778Z,101020.66
2023-04-27T21:19:00.215Z,101008.38
2023-04-27T21:21:27.081Z,101010.28
2023-04-27T21:24:04.131Z,101000.69
2023-04-27T21:26:34.105Z,100991.44
2023-04-27T21:29:01.095Z,100990.88
2023-04-27T21:31:27.525Z,100983.22
2023-04-27T21:33:54.060Z,100979.41
2023-04-27T21:36:20.497Z,100977.22
2023-04-27T21:38:47.189Z,100970.63
2023-04-27T21:41:13.888Z,100970.59
2023-04-27T21:43:42.016Z,100961.59
2023-04-27T21:46:09.093Z,100960.78
2023-04-27T21:48:35.888Z,100954.22
2023-04-27T21:51:02.734Z,100963.78
2023-04-27T21:53:32.127Z,100959.16
2023-04-27T21:55:58.699Z,100965.69
2023-04-27T21:58:25.689Z,100961.91
2023-04-27T22:00:52.120Z,100955.03
2023-04-27T22:03:18.632Z,100944.41
2023-04-27T22:05:45.368Z,100941.13
2023-04-27T22:08:12.124Z,100942.78
2023-04-27T22:10:38.781Z,100937.88
2023-04-27T22:13:17.836Z,100928.88
2023-04-27T22:15:45.063Z,100928.03
2023-04-27T22:18:11.438Z,100920.94
2023-04-27T22:20:38.328Z,100919.84
2023-04-27T22:23:04.828Z,100916.03
2023-04-27T22:25:31.506Z,100920.13
2023-04-27T22:27:57.862Z,100912.44
2023-04-27T22:30:24.444Z,100910.50
2023-04-27T22:32:51.343Z,100909.44
2023-04-27T22:35:26.391Z,100912.97
2023-04-27T22:37:58.934Z,100921.41
2023-04-27T22:40:25.584Z,100908.84
2023-04-27T22:42:52.716Z,100904.50
2023-04-27T22:45:19.228Z,100900.94
2023-04-27T22:47:46.034Z,100893.00
2023-04-27T22:50:13.410Z,100890.00
2023-04-27T22:52:42.282Z,100895.47
2023-04-27T22:55:09.693Z,100899.28
2023-04-27T22:57:36.074Z,100893.56
2023-04-27T23:00:05.186Z,100893.06
2023-04-27T23:02:31.997Z,100894.41
2023-04-27T23:04:58.831Z,100899.06
2023-04-27T23:07:25.347Z,100898.50
2023-04-27T23:09:52.781Z,100888.94
2023-04-27T23:12:20.654Z,100896.34
2023-04-27T23:14:47.177Z,100897.44
2023-04-27T23:17:15.498Z,100893.91
2023-04-27T23:19:41.961Z,100883.25
2023-04-27T23:22:08.381Z,100882.72
2023-04-27T23:24:34.828Z,100880.84
2023-04-27T23:27:01.264Z,100876.72
2023-04-27T23:29:27.870Z,100878.38
2023-04-27T23:31:54.258Z,100870.16
2023-04-27T23:34:20.582Z,100866.84
2023-04-27T23:36:47.034Z,100866.84
2023-04-27T23:39:13.419Z,100858.13
2023-04-27T23:41:39.719Z,100854.28
2023-04-27T23:44:06.226Z,100847.19
2023-04-27T23:46:32.672Z,100850.22
2023-04-27T23:48:59.069Z,100846.38
2023-04-27T23:51:25.553Z,100845.81
2023-04-27T23:53:51.874Z,100840.06
2023-04-27T23:56:19.216Z,100841.72
2023-04-27T23:58:45.933Z,100834.34
